Time;durP1;ratioP1;P1;durP2;ratioP2;P2;SDS_P1;SDS_P2;PMS_P1;PMS_P2;Temp;Humidity;BMP_temperature;BMP_pressure;BME280_temperature;BME280_humidity;BME280_pressure;Samples;Min_cycle;Max_cycle;Signal;HPM_P1;HPM_P2
2022/03/13 00:00:54;;;;;;;0.60;0.10;;;8.30;99.90;;;;;;5078918;28;20459;-80
2022/03/13 00:03:24;;;;;;;0.60;0.10;;;8.40;99.90;;;;;;5062226;28;20437;-80
2022/03/13 00:05:54;;;;;;;0.60;0.10;;;8.30;99.90;;;;;;5073248;28;20459;-79
2022/03/13 00:08:27;;;;;;;0.60;0.10;;;8.30;99.90;;;;;;5077507;28;20445;-77
2022/03/13 00:10:57;;;;;;;0.60;0.10;;;8.20;99.90;;;;;;5060536;28;20460;-78
2022/03/13 00:13:30;;;;;;;0.60;0.10;;;8.20;99.90;;;;;;5077074;28;20448;-78
2022/03/13 00:16:03;;;;;;;0.60;0.10;;;;;;;;;;5078379;28;20963;-78
2022/03/13 00:18:32;;;;;;;0.60;0.10;;;8.10;99.90;;;;;;5074044;28;20473;-77
2022/03/13 00:21:03;;;;;;;0.60;0.10;;;;;;;;;;5076773;28;20838;-79
2022/03/13 00:23:31;;;;;;;0.60;0.10;;;8.00;99.90;;;;;;5069691;28;20468;-78
2022/03/13 00:25:59;;;;;;;0.60;0.10;;;8.00;99.90;;;;;;5076398;28;20445;-78
2022/03/13 00:28:27;;;;;;;0.60;0.10;;;7.90;99.90;;;;;;5076915;28;20490;-79
2022/03/13 00:30:55;;;;;;;0.53;0.13;;;7.90;99.90;;;;;;5066332;28;20475;-78
2022/03/13 00:33:22;;;;;;;0.60;0.10;;;7.90;99.90;;;;;;5077032;28;20468;-76
2022/03/13 00:35:50;;;;;;;0.60;0.10;;;7.90;99.90;;;;;;5075820;28;20445;-75
2022/03/13 00:38:21;;;;;;;0.60;0.10;;;7.90;99.90;;;;;;5076959;28;20440;-76
2022/03/13 00:40:51;;;;;;;0.60;0.10;;;7.90;99.90;;;;;;5091290;28;20615;-79
2022/03/13 00:43:20;;;;;;;0.60;0.10;;;8.00;99.90;;;;;;5098787;28;20441;-79
2022/03/13 00:45:48;;;;;;;0.60;0.10;;;8.00;99.90;;;;;;5086822;28;20459;-78
2022/03/13 00:48:16;;;;;;;0.60;0.10;;;8.00;99.90;;;;;;5081609;28;20458;-79
2022/03/13 00:50:45;;;;;;;0.60;0.10;;;7.90;99.90;;;;;;5084146;28;20464;-77
2022/03/13 00:53:14;;;;;;;0.57;0.10;;;7.80;99.90;;;;;;5086263;28;20441;-80
2022/03/13 00:55:43;;;;;;;0.60;0.10;;;7.70;99.90;;;;;;5080999;28;20447;-78
2022/03/13 00:58:13;;;;;;;0.60;0.10;;;7.70;99.90;;;;;;5080563;28;20452;-80
2022/03/13 01:00:42;;;;;;;0.60;0.20;;;7.60;99.90;;;;;;5079638;28;20488;-78
2022/03/13 01:03:29;;;;;;;0.60;0.10;;;7.50;99.90;;;;;;5084314;28;20491;-78
2022/03/13 01:05:58;;;;;;;0.60;0.10;;;7.40;99.90;;;;;;5086343;28;20436;-78
2022/03/13 01:08:26;;;;;;;0.60;0.10;;;7.40;99.90;;;;;;5089000;28;20427;-78
2022/03/13 01:10:56;;;;;;;0.60;0.10;;;7.30;99.90;;;;;;5080560;28;20456;-76
2022/03/13 01:13:24;;;;;;;0.60;0.10;;;7.30;99.90;;;;;;5064055;28;20939;-78
2022/03/13 01:15:59;;;;;;;0.57;0.10;;;7.40;99.90;;;;;;5066389;28;20806;-78
2022/03/13 01:18:27;;;;;;;0.60;0.10;;;7.40;99.90;;;;;;5074579;28;20516;-73
2022/03/13 01:20:55;;;;;;;0.60;0.10;;;7.50;99.90;;;;;;5075587;28;20510;-78
2022/03/13 01:23:24;;;;;;;0.60;0.10;;;7.60;99.90;;;;;;5080084;28;20471;-79
2022/03/13 01:26:27;;;;;;;0.60;0.10;;;7.60;99.90;;;;;;5078660;28;20447;-79
2022/03/13 01:28:59;;;;;;;2.53;2.43;;;7.50;99.90;;;;;;5073626;28;20467;-77
2022/03/13 01:31:45;;;;;;;0.60;0.10;;;7.50;99.90;;;;;;5001464;28;20463;-79
2022/03/13 01:34:35;;;;;;;10.70;9.87;;;7.50;99.90;;;;;;4999229;28;21073;-78
2022/03/13 01:37:04;;;;;;;0.53;0.10;;;7.40;99.90;;;;;;4975321;28;20445;-79
2022/03/13 01:39:32;;;;;;;0.60;0.10;;;7.30;99.90;;;;;;4976915;28;20520;-76
2022/03/13 01:42:00;;;;;;;0.60;0.10;;;7.30;99.90;;;;;;4999642;28;20531;-79
2022/03/13 01:44:29;;;;;;;0.60;0.10;;;7.40;99.90;;;;;;5006190;28;20819;-79
2022/03/13 01:46:57;;;;;;;0.60;0.10;;;7.40;99.90;;;;;;5013239;28;20530;-79
2022/03/13 01:49:25;;;;;;;0.60;0.10;;;7.30;99.90;;;;;;5002842;28;20447;-78
2022/03/13 01:51:53;;;;;;;0.60;0.10;;;7.30;99.90;;;;;;5002491;28;20448;-79
2022/03/13 01:54:21;;;;;;;0.60;0.10;;;7.30;99.90;;;;;;4997563;28;20449;-79
2022/03/13 01:56:49;;;;;;;0.60;0.10;;;7.30;99.90;;;;;;5009000;28;20454;-79
2022/03/13 01:59:17;;;;;;;0.60;0.13;;;7.40;99.90;;;;;;5022123;28;20482;-79
2022/03/13 02:01:46;;;;;;;0.60;0.20;;;7.40;99.90;;;;;;5025430;28;20441;-79
2022/03/13 02:04:15;;;;;;;0.60;0.10;;;7.30;99.90;;;;;;5069654;28;20822;-79
2022/03/13 02:06:42;;;;;;;0.60;0.10;;;7.30;99.90;;;;;;5067437;28;20441;-78
2022/03/13 02:09:12;;;;;;;0.60;0.10;;;7.20;99.90;;;;;;5078433;28;20463;-79
2022/03/13 02:11:41;;;;;;;0.60;0.10;;;7.30;99.90;;;;;;5060350;28;20451;-78
2022/03/13 02:14:11;;;;;;;1.03;0.80;;;7.20;99.90;;;;;;5057350;28;20440;-79
2022/03/13 02:16:39;;;;;;;1.77;1.57;;;7.10;99.90;;;;;;5057332;28;20444;-79
2022/03/13 02:19:09;;;;;;;0.60;0.10;;;6.90;99.90;;;;;;5056140;28;20458;-79
2022/03/13 02:21:39;;;;;;;0.60;0.10;;;6.90;99.90;;;;;;5056775;28;20442;-79
2022/03/13 02:24:14;;;;;;;0.60;0.10;;;6.80;99.90;;;;;;5056826;28;20443;-79
2022/03/13 02:26:43;;;;;;;0.60;0.10;;;6.80;99.90;;;;;;5075395;28;20475;-79
2022/03/13 02:29:13;;;;;;;0.60;0.10;;;6.70;99.90;;;;;;5076196;28;20491;-78
2022/03/13 02:31:41;;;;;;;0.60;0.20;;;6.70;99.90;;;;;;5063643;28;20448;-79
2022/03/13 02:34:16;;;;;;;0.60;0.10;;;6.70;99.90;;;;;;5081280;28;20451;-79
2022/03/13 02:37:00;;;;;;;0.60;0.10;;;6.70;99.90;;;;;;5086064;28;20423;-78
2022/03/13 02:39:33;;;;;;;0.60;0.10;;;6.70;99.90;;;;;;5087894;28;20470;-79
2022/03/13 02:42:01;;;;;;;0.60;0.10;;;6.60;99.90;;;;;;5081016;28;21145;-78
2022/03/13 02:44:30;;;;;;;2.43;2.33;;;6.70;99.90;;;;;;5081378;28;20992;-79
2022/03/13 02:47:00;;;;;;;4.67;2.57;;;6.60;99.90;;;;;;5082134;28;20439;-78
2022/03/13 02:49:30;;;;;;;0.70;0.63;;;6.40;99.90;;;;;;5082199;28;20491;-78
2022/03/13 02:52:01;;;;;;;0.60;0.33;;;6.40;99.90;;;;;;5078951;28;20448;-78
2022/03/13 02:54:31;;;;;;;5.80;5.50;;;6.40;99.90;;;;;;5057179;28;20440;-79
2022/03/13 02:57:00;;;;;;;0.70;0.53;;;6.40;99.90;;;;;;5057079;28;20446;-78
2022/03/13 02:59:28;;;;;;;0.60;0.20;;;6.40;99.90;;;;;;5073871;28;20459;-78
2022/03/13 03:01:57;;;;;;;0.60;0.10;;;6.40;99.90;;;;;;5079549;28;20475;-77
2022/03/13 03:04:25;;;;;;;0.60;0.33;;;6.40;99.90;;;;;;5076642;28;20446;-77
2022/03/13 03:06:59;;;;;;;0.60;0.10;;;6.30;99.90;;;;;;5081767;28;20447;-79
2022/03/13 03:09:31;;;;;;;0.60;0.10;;;6.20;99.90;;;;;;5094884;28;20466;-79
2022/03/13 03:12:00;;;;;;;0.60;0.10;;;6.10;99.90;;;;;;5084177;28;20478;-79
2022/03/13 03:14:30;;;;;;;0.60;0.20;;;6.10;99.90;;;;;;5078795;28;20450;-78
2022/03/13 03:16:59;;;;;;;3.87;1.13;;;6.00;99.90;;;;;;5077664;28;20465;-78
2022/03/13 03:19:27;;;;;;;0.60;0.10;;;5.90;99.90;;;;;;5075911;28;20495;-78
2022/03/13 03:21:55;;;;;;;22.70;16.87;;;5.80;99.90;;;;;;5056547;28;20590;-78
2022/03/13 03:24:25;;;;;;;0.50;0.10;;;5.80;99.90;;;;;;5056830;28;20531;-78
2022/03/13 03:26:55;;;;;;;0.60;0.10;;;5.90;99.90;;;;;;5058994;28;20450;-78
2022/03/13 03:29:25;;;;;;;0.60;0.10;;;5.80;99.90;;;;;;5061207;28;20514;-79
2022/03/13 03:31:54;;;;;;;0.57;0.30;;;5.80;99.90;;;;;;5066317;28;20444;-79
2022/03/13 03:34:25;;;;;;;0.60;0.10;;;5.90;99.90;;;;;;5070728;28;20456;-79
2022/03/13 03:36:54;;;;;;;0.50;0.10;;;6.00;99.90;;;;;;5067688;28;20448;-79
2022/03/13 03:39:23;;;;;;;0.60;0.10;;;6.10;99.90;;;;;;5065259;28;20481;-79
2022/03/13 03:41:52;;;;;;;0.60;0.10;;;;;;;;;;5086902;22;20479;-75
2022/03/13 03:44:22;;;;;;;0.53;0.10;;;6.20;99.90;;;;;;5056561;28;20493;-72
2022/03/13 03:46:52;;;;;;;4.93;0.73;;;6.20;99.90;;;;;;5069863;28;20453;-72
2022/03/13 03:49:19;;;;;;;0.70;0.43;;;6.20;99.90;;;;;;5064183;28;20451;-72
2022/03/13 03:51:47;;;;;;;0.50;0.20;;;6.20;99.90;;;;;;5062920;28;20443;-72
2022/03/13 03:54:16;;;;;;;1.03;0.93;;;;;;;;;;5042304;28;20442;-73
2022/03/13 03:56:44;;;;;;;0.60;0.10;;;6.10;99.90;;;;;;5035176;28;20448;-72
2022/03/13 03:59:12;;;;;;;0.50;0.10;;;6.20;99.90;;;;;;5032751;28;20476;-72
2022/03/13 04:01:43;;;;;;;0.60;0.10;;;6.20;99.90;;;;;;5034899;28;20519;-74
2022/03/13 04:04:17;;;;;;;0.60;0.20;;;;;;;;;;5035007;28;20460;-72
2022/03/13 04:06:44;;;;;;;0.50;0.10;;;6.20;99.90;;;;;;5034835;28;20467;-72
2022/03/13 04:09:13;;;;;;;0.50;0.10;;;6.20;99.90;;;;;;5042230;28;20474;-72
2022/03/13 04:11:41;;;;;;;0.50;0.10;;;6.20;99.90;;;;;;5034355;28;20966;-72
2022/03/13 04:14:09;;;;;;;0.50;0.10;;;6.20;99.90;;;;;;5034743;28;21173;-72
2022/03/13 04:16:37;;;;;;;0.50;0.10;;;6.30;99.90;;;;;;5017514;28;20456;-72
2022/03/13 04:19:08;;;;;;;0.50;0.10;;;6.30;99.90;;;;;;5035185;28;20505;-72
2022/03/13 04:21:39;;;;;;;0.50;0.10;;;6.30;99.90;;;;;;5035301;28;20476;-73
2022/03/13 04:24:07;;;;;;;0.60;0.10;;;6.40;99.90;;;;;;5035314;28;20466;-72
2022/03/13 04:26:35;;;;;;;0.53;0.10;;;6.40;99.90;;;;;;5053245;28;20475;-73
2022/03/13 04:29:03;;;;;;;0.50;0.10;;;6.40;99.90;;;;;;5046502;28;20967;-73
2022/03/13 04:31:32;;;;;;;0.50;0.10;;;6.40;99.90;;;;;;5033402;28;20448;-74
2022/03/13 04:34:00;;;;;;;0.60;0.10;;;6.40;99.90;;;;;;5034678;28;20458;-72
2022/03/13 04:36:30;;;;;;;0.50;0.10;;;6.30;99.90;;;;;;5032880;28;20451;-74
2022/03/13 04:38:58;;;;;;;0.50;0.20;;;6.30;99.90;;;;;;5035021;28;20478;-75
2022/03/13 04:41:26;;;;;;;0.50;0.20;;;6.20;99.90;;;;;;5045693;28;20645;-72
2022/03/13 04:43:54;;;;;;;0.50;0.10;;;6.10;99.90;;;;;;5054187;28;20843;-73
2022/03/13 04:46:22;;;;;;;0.50;0.10;;;5.90;99.90;;;;;;5045361;28;20450;-72
2022/03/13 04:48:50;;;;;;;0.57;0.10;;;5.90;99.90;;;;;;5035793;28;20462;-72
2022/03/13 04:51:18;;;;;;;0.60;0.10;;;6.00;99.90;;;;;;5034575;28;20446;-72
2022/03/13 04:53:47;;;;;;;0.60;0.10;;;5.90;99.90;;;;;;5034279;28;20461;-72
2022/03/13 04:56:15;;;;;;;0.50;0.10;;;5.90;99.90;;;;;;5034164;28;20955;-72
2022/03/13 04:58:43;;;;;;;0.60;0.10;;;5.80;99.90;;;;;;5033892;28;20446;-72
2022/03/13 05:01:12;;;;;;;0.50;0.10;;;5.80;99.90;;;;;;5033879;28;20500;-72
2022/03/13 05:03:40;;;;;;;0.50;0.10;;;5.80;99.90;;;;;;5034502;28;20479;-72
2022/03/13 05:06:08;;;;;;;0.50;0.10;;;5.80;99.90;;;;;;5033756;28;20440;-72
2022/03/13 05:08:36;;;;;;;0.60;0.10;;;5.80;99.90;;;;;;5034253;28;21021;-72
2022/03/13 05:11:07;;;;;;;0.50;0.10;;;5.70;99.90;;;;;;5034246;28;20456;-72
2022/03/13 05:13:35;;;;;;;0.50;0.10;;;5.70;99.90;;;;;;5034979;28;20567;-72
2022/03/13 05:16:04;;;;;;;0.50;0.10;;;5.60;99.90;;;;;;5034234;28;20441;-73
2022/03/13 05:18:32;;;;;;;0.50;0.10;;;5.60;99.90;;;;;;5034075;28;20452;-72
2022/03/13 05:21:00;;;;;;;0.50;0.10;;;5.60;99.90;;;;;;5034353;28;20568;-72
2022/03/13 05:23:28;;;;;;;0.60;0.10;;;5.70;99.90;;;;;;5034095;28;20830;-72
2022/03/13 05:25:56;;;;;;;0.50;0.10;;;5.70;99.90;;;;;;5046665;28;20444;-71
2022/03/13 05:28:29;;;;;;;0.50;0.20;;;5.70;99.90;;;;;;5039111;28;20473;-72
2022/03/13 05:30:57;;;;;;;16.43;15.13;;;5.70;99.90;;;;;;5033909;28;20450;-71
2022/03/13 05:33:24;;;;;;;0.50;0.20;;;5.70;99.90;;;;;;5034040;28;20976;-73
2022/03/13 05:35:52;;;;;;;0.50;0.10;;;5.70;99.90;;;;;;5033929;28;20451;-71
2022/03/13 05:38:20;;;;;;;0.50;0.10;;;5.70;99.90;;;;;;5033843;28;20453;-73
2022/03/13 05:40:49;;;;;;;0.50;0.10;;;5.70;99.90;;;;;;5033618;28;20940;-71
2022/03/13 05:43:21;;;;;;;0.50;0.10;;;5.70;99.90;;;;;;5033187;28;20561;-71
2022/03/13 05:45:54;;;;;;;0.60;0.20;;;5.70;99.90;;;;;;5033667;28;20444;-72
2022/03/13 05:48:22;;;;;;;0.50;0.10;;;5.70;99.90;;;;;;5033190;28;20459;-72
2022/03/13 05:50:50;;;;;;;0.50;0.10;;;5.60;99.90;;;;;;5033749;28;20533;-74
2022/03/13 05:53:18;;;;;;;0.50;0.10;;;5.50;99.90;;;;;;5033121;28;20457;-73
2022/03/13 05:55:46;;;;;;;0.50;0.10;;;5.50;99.90;;;;;;5032897;28;20441;-75
2022/03/13 05:58:14;;;;;;;0.60;0.10;;;5.40;99.90;;;;;;5033569;28;20475;-72
2022/03/13 06:00:42;;;;;;;0.50;0.10;;;5.40;99.90;;;;;;5033505;28;20555;-72
2022/03/13 06:03:12;;;;;;;0.50;0.10;;;5.30;99.90;;;;;;5033162;28;20484;-72
2022/03/13 06:05:40;;;;;;;0.50;0.10;;;5.30;99.90;;;;;;5033014;28;20442;-72
2022/03/13 06:08:08;;;;;;;0.50;0.10;;;5.30;99.90;;;;;;5032050;28;20452;-72
2022/03/13 06:10:36;;;;;;;0.50;0.10;;;5.30;99.90;;;;;;5032732;28;20458;-72
2022/03/13 06:13:04;;;;;;;0.97;0.97;;;5.40;99.90;;;;;;5033170;28;20481;-72
2022/03/13 06:15:37;;;;;;;0.50;0.10;;;5.40;99.90;;;;;;5032764;28;20535;-72
2022/03/13 06:18:05;;;;;;;0.50;0.10;;;5.30;99.90;;;;;;5032867;28;20450;-73
2022/03/13 06:20:34;;;;;;;0.50;0.10;;;5.30;99.90;;;;;;5032883;28;20563;-73
2022/03/13 06:23:03;;;;;;;0.50;0.10;;;5.30;99.90;;;;;;5032193;28;21048;-72
2022/03/13 06:25:31;;;;;;;0.50;0.10;;;5.40;99.90;;;;;;5041550;28;20524;-73
2022/03/13 06:28:00;;;;;;;0.50;0.10;;;5.40;99.90;;;;;;5042277;28;20449;-73
2022/03/13 06:30:28;;;;;;;0.50;0.20;;;5.50;99.90;;;;;;5033173;28;20448;-72
2022/03/13 06:32:56;;;;;;;0.50;0.10;;;5.60;99.90;;;;;;5032753;28;20456;-72
2022/03/13 06:35:25;;;;;;;0.50;0.10;;;5.50;99.90;;;;;;5032806;28;20529;-72
2022/03/13 06:37:55;;;;;;;0.50;0.10;;;5.60;99.90;;;;;;5026999;28;20503;-71
2022/03/13 06:40:25;;;;;;;0.50;0.10;;;5.50;99.90;;;;;;5025304;28;20446;-73
2022/03/13 06:42:56;;;;;;;0.50;0.10;;;5.50;99.90;;;;;;5028468;28;20477;-71
2022/03/13 06:45:24;;;;;;;0.50;0.10;;;5.60;99.90;;;;;;5021469;28;20459;-72
2022/03/13 06:47:52;;;;;;;0.50;0.10;;;5.60;99.90;;;;;;5029204;28;20475;-71
2022/03/13 06:50:23;;;;;;;0.50;0.10;;;5.60;99.90;;;;;;5028276;28;21009;-72
2022/03/13 06:52:55;;;;;;;0.50;0.10;;;5.70;99.90;;;;;;5029054;28;20475;-72
2022/03/13 06:55:25;;;;;;;0.60;0.20;;;5.70;99.90;;;;;;5030204;28;20505;-72
2022/03/13 06:57:53;;;;;;;0.60;0.10;;;5.90;99.90;;;;;;5029389;28;20475;-73
2022/03/13 07:00:21;;;;;;;0.50;0.10;;;5.90;99.90;;;;;;5029935;28;20437;-75
2022/03/13 07:02:49;;;;;;;0.50;0.10;;;5.80;99.90;;;;;;5025414;28;20487;-73
2022/03/13 07:05:20;;;;;;;0.50;0.10;;;5.80;99.90;;;;;;5019990;28;20455;-75
2022/03/13 07:07:52;;;;;;;0.50;0.10;;;5.80;99.90;;;;;;5025656;28;20536;-72
2022/03/13 07:10:21;;;;;;;8.80;7.90;;;5.80;99.90;;;;;;5020178;28;20442;-74
2022/03/13 07:12:50;;;;;;;0.50;0.10;;;5.80;99.90;;;;;;5021681;28;21057;-76
2022/03/13 07:15:18;;;;;;;0.50;0.10;;;5.80;99.90;;;;;;5021060;28;20533;-73
2022/03/13 07:17:46;;;;;;;0.50;0.10;;;5.80;99.90;;;;;;5021977;28;20451;-75
2022/03/13 07:20:15;;;;;;;0.50;0.10;;;5.80;99.90;;;;;;5014561;28;20902;-72
2022/03/13 07:22:45;;;;;;;0.60;0.20;;;5.90;99.90;;;;;;5012143;28;20491;-73
2022/03/13 07:25:14;;;;;;;0.50;0.10;;;5.90;99.90;;;;;;5025386;28;20476;-74
2022/03/13 07:27:43;;;;;;;0.50;0.10;;;6.00;99.90;;;;;;5031232;28;20457;-74
2022/03/13 07:30:14;;;;;;;0.50;0.10;;;6.00;99.90;;;;;;5031885;28;20485;-73
2022/03/13 07:32:42;;;;;;;0.50;0.10;;;6.10;99.90;;;;;;5032157;28;20532;-73
2022/03/13 07:35:12;;;;;;;0.60;0.30;;;7.00;99.90;;;;;;5029203;28;21003;-73
2022/03/13 07:37:40;;;;;;;0.60;0.10;;;6.20;99.90;;;;;;5031183;28;20454;-73
2022/03/13 07:40:09;;;;;;;0.50;0.10;;;6.30;99.90;;;;;;5039904;28;20442;-74
2022/03/13 07:42:37;;;;;;;0.50;0.10;;;6.30;99.90;;;;;;5031666;28;20516;-74
2022/03/13 07:45:07;;;;;;;0.53;0.10;;;6.30;99.90;;;;;;5032051;28;20978;-72
2022/03/13 07:47:35;;;;;;;0.50;0.10;;;6.40;99.90;;;;;;5031958;28;20454;-75
2022/03/13 07:50:04;;;;;;;0.50;0.10;;;6.40;99.90;;;;;;5031944;28;20456;-73
2022/03/13 07:52:32;;;;;;;0.50;0.10;;;6.40;99.90;;;;;;5031502;28;20983;-74
2022/03/13 07:55:00;;;;;;;0.50;0.10;;;6.40;99.90;;;;;;5031705;28;20452;-74
2022/03/13 07:57:28;;;;;;;0.50;0.10;;;6.40;99.90;;;;;;5031481;28;20540;-74
2022/03/13 07:59:56;;;;;;;0.60;0.10;;;6.50;99.90;;;;;;5031481;28;20460;-74
2022/03/13 08:02:26;;;;;;;0.60;0.10;;;6.50;99.90;;;;;;5028287;28;20477;-74
2022/03/13 08:04:54;;;;;;;0.60;0.10;;;6.50;99.90;;;;;;5037691;28;20891;-74
2022/03/13 08:07:22;;;;;;;0.60;0.10;;;6.50;99.90;;;;;;5030790;28;20589;-74
2022/03/13 08:09:50;;;;;;;0.80;0.80;;;6.60;99.90;;;;;;5031720;28;21047;-73
2022/03/13 08:12:18;;;;;;;0.60;0.10;;;6.60;99.90;;;;;;5024873;28;20487;-74
2022/03/13 08:14:46;;;;;;;0.60;0.10;;;6.60;99.90;;;;;;5024024;28;20453;-72
2022/03/13 08:17:15;;;;;;;0.57;0.10;;;6.60;99.90;;;;;;5029085;28;20557;-74
2022/03/13 08:19:44;;;;;;;0.60;0.10;;;6.60;99.90;;;;;;5026982;28;20442;-75
2022/03/13 08:22:13;;;;;;;0.50;0.10;;;6.70;99.90;;;;;;5023422;28;20473;-74
2022/03/13 08:24:41;;;;;;;0.50;0.10;;;6.70;99.90;;;;;;5027785;28;20477;-73
2022/03/13 08:27:09;;;;;;;0.60;0.10;;;6.80;99.90;;;;;;5023888;28;21024;-73
2022/03/13 08:29:37;;;;;;;0.60;0.10;;;6.90;99.90;;;;;;5022107;28;20569;-73
2022/03/13 08:32:05;;;;;;;0.60;0.10;;;7.00;99.90;;;;;;5028614;28;20449;-75
2022/03/13 08:34:34;;;;;;;0.60;0.10;;;7.00;99.90;;;;;;5029830;28;20476;-74
2022/03/13 08:37:04;;;;;;;0.60;0.10;;;7.00;99.90;;;;;;5023074;28;20513;-74
2022/03/13 08:39:32;;;;;;;36.30;11.57;;;7.00;99.90;;;;;;5023660;28;20442;-75
2022/03/13 08:42:00;;;;;;;0.60;0.20;;;7.10;99.90;;;;;;5029256;28;20468;-73
2022/03/13 08:44:28;;;;;;;0.60;0.10;;;7.10;99.90;;;;;;5022438;28;20483;-73
2022/03/13 08:46:56;;;;;;;0.60;0.10;;;7.20;99.90;;;;;;5027682;28;20477;-72
2022/03/13 08:49:24;;;;;;;0.60;0.10;;;7.20;99.90;;;;;;5024692;28;20976;-74
2022/03/13 08:51:54;;;;;;;0.97;0.97;;;7.20;99.90;;;;;;5027266;28;20444;-73
2022/03/13 08:54:23;;;;;;;1.50;1.40;;;7.20;99.90;;;;;;5027565;28;20508;-75
2022/03/13 08:56:56;;;;;;;0.60;0.30;;;7.30;99.90;;;;;;5024725;28;20981;-74
2022/03/13 08:59:24;;;;;;;0.60;0.10;;;7.40;99.90;;;;;;5023343;28;20466;-75
2022/03/13 09:01:52;;;;;;;0.60;0.10;;;7.50;99.90;;;;;;5027443;28;20473;-73
2022/03/13 09:04:20;;;;;;;0.60;0.20;;;7.60;99.90;;;;;;5034075;28;20481;-73
2022/03/13 09:06:49;;;;;;;0.60;0.53;;;7.60;99.90;;;;;;5033471;28;20461;-74
2022/03/13 09:09:20;;;;;;;0.60;0.10;;;7.80;99.90;;;;;;5020854;28;20452;-73
2022/03/13 09:11:51;;;;;;;0.60;0.10;;;;;;;;;;5014200;28;20906;-73
2022/03/13 09:14:19;;;;;;;0.60;0.10;;;7.80;99.90;;;;;;5024623;28;21318;-74
2022/03/13 09:16:47;;;;;;;0.60;0.10;;;7.90;99.90;;;;;;5033788;28;20445;-72
2022/03/13 09:19:15;;;;;;;0.60;0.10;;;8.00;99.90;;;;;;5034015;28;20451;-73
2022/03/13 09:21:44;;;;;;;0.60;0.10;;;8.10;99.90;;;;;;5033786;28;20454;-73
2022/03/13 09:24:12;;;;;;;2.60;2.43;;;8.20;99.90;;;;;;5033353;28;20521;-73
2022/03/13 09:26:45;;;;;;;0.60;0.10;;;8.20;99.90;;;;;;5033236;28;20439;-74
2022/03/13 09:29:14;;;;;;;0.60;0.10;;;8.40;99.90;;;;;;5034448;28;20453;-73
2022/03/13 09:31:42;;;;;;;0.60;0.10;;;8.30;99.90;;;;;;5028025;28;20936;-74
2022/03/13 09:34:10;;;;;;;0.60;0.30;;;8.40;99.90;;;;;;5016293;28;20505;-73
2022/03/13 09:36:42;;;;;;;0.67;0.40;;;;;;;;;;5013813;28;20452;-75
2022/03/13 09:39:11;;;;;;;1.47;1.13;;;8.50;99.90;;;;;;5021866;28;20449;-73
2022/03/13 09:41:39;;;;;;;0.60;0.20;;;8.70;99.90;;;;;;5018551;28;20453;-76
2022/03/13 09:44:08;;;;;;;0.60;0.10;;;8.80;99.90;;;;;;5085209;23;20508;-80
2022/03/13 09:46:38;;;;;;;0.70;0.40;;;8.80;99.90;;;;;;5042545;28;20831;-81
2022/03/13 09:49:06;;;;;;;0.60;0.10;;;8.90;99.90;;;;;;5065190;28;20499;-80
2022/03/13 09:51:34;;;;;;;0.60;0.10;;;9.00;99.90;;;;;;5056917;28;20454;-79
2022/03/13 09:54:03;;;;;;;0.60;0.10;;;9.90;99.90;;;;;;5064729;28;20530;-79
2022/03/13 09:56:34;;;;;;;1.80;0.60;;;9.10;99.90;;;;;;5058939;28;20481;-80
2022/03/13 09:59:01;;;;;;;3.30;1.53;;;9.20;99.90;;;;;;5059625;28;20451;-79
2022/03/13 10:01:30;;;;;;;0.60;0.10;;;9.40;99.90;;;;;;5069092;28;20476;-81
2022/03/13 10:03:59;;;;;;;5.37;5.10;;;9.50;99.90;;;;;;5051292;28;20994;-80
2022/03/13 10:06:29;;;;;;;0.60;0.20;;;9.50;99.90;;;;;;5050127;28;20447;-78
2022/03/13 10:08:57;;;;;;;0.60;0.10;;;9.50;99.90;;;;;;5058107;28;20522;-81
2022/03/13 10:11:35;;;;;;;0.60;0.10;;;9.60;99.90;;;;;;5056261;28;20439;-81
2022/03/13 10:14:10;;;;;;;0.60;0.10;;;;;;;;;;5043010;28;20469;-83
2022/03/13 10:16:40;;;;;;;0.60;0.10;;;9.70;99.90;;;;;;5061607;28;20469;-80
2022/03/13 10:19:16;;;;;;;0.60;0.20;;;9.90;99.90;;;;;;5065345;28;20458;-80
2022/03/13 10:22:04;;;;;;;0.60;0.10;;;10.00;99.90;;;;;;5063256;28;20948;-78
2022/03/13 10:24:41;;;;;;;0.60;0.10;;;10.00;99.90;;;;;;5067240;28;20474;-81
2022/03/13 10:27:14;;;;;;;0.60;0.10;;;10.20;99.90;;;;;;5065712;28;20466;-79
2022/03/13 10:29:45;;;;;;;0.60;0.20;;;10.30;99.90;;;;;;5064018;28;20862;-79
2022/03/13 10:32:13;;;;;;;0.60;0.10;;;10.30;99.90;;;;;;5076173;28;20501;-79
2022/03/13 10:34:54;;;;;;;0.60;0.10;;;10.30;99.90;;;;;;5070201;28;20435;-80
2022/03/13 10:37:33;;;;;;;0.60;0.10;;;10.40;99.90;;;;;;5063079;28;20494;-80
2022/03/13 10:40:16;;;;;;;0.60;0.10;;;10.60;99.90;;;;;;5063301;28;20490;-79
2022/03/13 10:42:44;;;;;;;0.60;0.10;;;10.70;99.90;;;;;;5071328;28;20471;-79
2022/03/13 10:45:36;;;;;;;1.57;1.03;;;10.70;99.90;;;;;;5058526;28;20488;-80
2022/03/13 10:48:24;;;;;;;0.60;0.10;;;10.90;99.90;;;;;;5061928;28;20447;-79
2022/03/13 10:50:54;;;;;;;1.23;1.13;;;11.00;99.90;;;;;;5062066;28;20447;-80
2022/03/13 10:53:23;;;;;;;0.60;0.10;;;11.10;99.90;;;;;;5057149;28;21001;-81
2022/03/13 10:56:08;;;;;;;0.60;0.10;;;11.20;99.90;;;;;;5051059;28;20491;-78
2022/03/13 10:58:39;;;;;;;1.60;1.50;;;11.20;99.90;;;;;;5052666;28;20424;-79
2022/03/13 11:01:10;;;;;;;0.60;0.10;;;11.20;99.90;;;;;;5062985;28;20439;-79
2022/03/13 11:03:48;;;;;;;0.60;0.10;;;11.30;99.90;;;;;;5057449;28;20467;-79
2022/03/13 11:06:18;;;;;;;0.60;0.10;;;11.30;99.90;;;;;;5050227;28;20457;-78
2022/03/13 11:08:47;;;;;;;0.60;0.10;;;11.30;99.90;;;;;;5049987;28;20810;-80
2022/03/13 11:11:19;;;;;;;0.60;0.20;;;11.40;99.90;;;;;;5046754;28;20535;-78
2022/03/13 11:13:52;;;;;;;0.60;0.10;;;11.50;99.90;;;;;;5045155;28;20463;-81
2022/03/13 11:16:23;;;;;;;0.60;0.10;;;11.50;99.90;;;;;;5038770;28;20441;-79
2022/03/13 11:18:53;;;;;;;0.60;0.10;;;11.60;99.90;;;;;;5035408;28;20811;-78
2022/03/13 11:21:25;;;;;;;0.60;0.10;;;11.70;99.90;;;;;;5037514;28;20998;-79
2022/03/13 11:23:53;;;;;;;0.60;0.20;;;11.70;99.90;;;;;;5037594;28;20459;-79
2022/03/13 11:26:24;;;;;;;0.60;0.10;;;11.80;99.90;;;;;;5047961;28;20964;-79
2022/03/13 11:28:53;;;;;;;0.60;0.10;;;11.80;99.90;;;;;;5041166;28;20446;-80
2022/03/13 11:31:32;;;;;;;0.60;0.10;;;11.80;99.90;;;;;;5037988;28;20864;-78
2022/03/13 11:34:13;;;;;;;0.60;0.10;;;11.90;99.90;;;;;;5035737;28;20483;-78
2022/03/13 11:36:43;;;;;;;0.60;0.10;;;11.90;99.90;;;;;;5037277;28;20454;-80
2022/03/13 11:39:14;;;;;;;0.60;0.20;;;11.90;99.90;;;;;;5046466;28;20638;-81
2022/03/13 11:41:44;;;;;;;0.73;0.50;;;12.00;99.90;;;;;;5045820;28;20532;-76
2022/03/13 11:44:39;;;;;;;0.60;0.10;;;12.00;99.90;;;;;;5071877;28;20483;-80
2022/03/13 11:47:23;;;;;;;0.70;0.40;;;12.00;99.90;;;;;;5067502;28;20447;-79
2022/03/13 11:49:51;;;;;;;0.60;0.10;;;12.20;99.90;;;;;;5087196;28;20460;-80
2022/03/13 11:52:30;;;;;;;0.60;0.10;;;12.40;99.90;;;;;;5067970;28;20460;-80
2022/03/13 11:55:00;;;;;;;0.60;0.17;;;12.40;99.90;;;;;;5079556;28;20457;-78
2022/03/13 11:57:40;;;;;;;0.60;0.20;;;12.40;99.90;;;;;;5091924;28;20442;-81
2022/03/13 12:00:30;;;;;;;0.70;0.43;;;12.50;99.90;;;;;;5069184;28;20453;-81
2022/03/13 12:03:11;;;;;;;0.60;0.10;;;12.60;99.90;;;;;;5074620;28;20526;-80
2022/03/13 12:05:53;;;;;;;0.70;0.30;;;12.70;99.90;;;;;;5067366;28;20581;-81
2022/03/13 12:08:23;;;;;;;4.90;4.70;;;12.70;99.90;;;;;;5082946;28;20522;-78
2022/03/13 12:10:52;;;;;;;0.60;0.10;;;12.70;99.90;;;;;;5073598;28;20561;-78
2022/03/13 12:13:22;;;;;;;26.87;25.67;;;12.70;99.90;;;;;;5094813;28;20458;-77
2022/03/13 12:15:50;;;;;;;1.97;1.87;;;12.80;99.90;;;;;;5076053;28;20456;-79
2022/03/13 12:18:22;;;;;;;0.73;0.50;;;12.90;99.90;;;;;;5092461;28;20449;-79
2022/03/13 12:20:51;;;;;;;0.60;0.10;;;12.90;99.90;;;;;;5081910;28;20449;-77
2022/03/13 12:23:28;;;;;;;0.60;0.17;;;13.30;99.90;;;;;;5084311;28;20570;-78
2022/03/13 12:26:18;;;;;;;0.60;0.20;;;13.10;99.90;;;;;;5084094;28;20507;-78
2022/03/13 12:28:46;;;;;;;3.23;3.03;;;13.20;99.90;;;;;;5081214;28;20501;-78
2022/03/13 12:31:14;;;;;;;0.60;0.10;;;13.30;99.90;;;;;;5077917;28;20510;-80
2022/03/13 12:33:47;;;;;;;0.60;0.10;;;13.30;99.90;;;;;;5076122;28;20492;-78
2022/03/13 12:36:16;;;;;;;0.60;0.10;;;13.40;99.90;;;;;;5091623;28;20525;-79
2022/03/13 12:38:50;;;;;;;0.60;0.10;;;13.40;99.90;;;;;;5089227;28;20424;-80
2022/03/13 12:41:25;;;;;;;0.60;0.10;;;13.40;99.90;;;;;;5085559;28;20439;-80
2022/03/13 12:43:56;;;;;;;0.60;0.10;;;13.50;99.90;;;;;;5088039;28;20858;-78
2022/03/13 12:46:27;;;;;;;0.60;0.10;;;13.50;99.90;;;;;;5090867;28;20487;-78
2022/03/13 12:48:56;;;;;;;0.60;0.30;;;13.60;99.90;;;;;;5049873;28;20445;-79
2022/03/13 12:51:38;;;;;;;0.60;0.20;;;13.60;99.90;;;;;;5042679;28;21017;-80
2022/03/13 12:54:08;;;;;;;0.70;0.40;;;13.70;99.90;;;;;;5054213;28;20485;-81
2022/03/13 12:56:46;;;;;;;0.80;0.67;;;13.80;99.90;;;;;;5076742;28;20443;-77
2022/03/13 12:59:23;;;;;;;0.60;0.10;;;13.70;99.90;;;;;;5071028;28;20468;-79
2022/03/13 13:02:05;;;;;;;0.60;0.10;;;13.90;99.90;;;;;;5063909;28;20474;-81
2022/03/13 13:04:35;;;;;;;0.60;0.10;;;13.90;99.90;;;;;;5042706;28;20546;-78
2022/03/13 13:07:04;;;;;;;0.60;0.10;;;14.00;99.90;;;;;;5040174;28;20984;-79
2022/03/13 13:09:36;;;;;;;0.60;0.10;;;14.10;99.90;;;;;;5041631;28;20482;-82
2022/03/13 13:12:05;;;;;;;0.60;0.10;;;14.10;99.90;;;;;;5041545;28;20486;-79
2022/03/13 13:14:32;;;;;;;0.60;0.10;;;14.20;99.90;;;;;;5041301;28;20485;-80